Time;durP1;ratioP1;P1;durP2;ratioP2;P2;SDS_P1;SDS_P2;PMS_P1;PMS_P2;Temp;Humidity;BMP_temperature;BMP_pressure;BME280_temperature;BME280_humidity;BME280_pressure;Samples;Min_cycle;Max_cycle;Signal;HPM_P1;HPM_P2
2022/05/25 00:02:01;;;;;;;11.77;7.95;;;10.20;99.90;;;;;;4972996;28;20446;-74
2022/05/25 00:04:27;;;;;;;8.63;7.15;;;10.20;99.90;;;;;;4970998;28;20258;-75
2022/05/25 00:06:53;;;;;;;9.27;8.07;;;10.20;99.90;;;;;;4967190;28;20056;-75
2022/05/25 00:09:20;;;;;;;10.60;7.63;;;10.20;99.90;;;;;;4951141;28;20042;-75
2022/05/25 00:11:46;;;;;;;9.57;8.07;;;10.20;99.90;;;;;;4968891;28;20073;-75
2022/05/25 00:14:12;;;;;;;11.70;7.55;;;10.20;99.90;;;;;;4971615;28;20042;-75
2022/05/25 00:16:38;;;;;;;10.63;7.63;;;10.20;99.90;;;;;;4987543;28;20034;-75
2022/05/25 00:21:49;;;;;;;9.10;7.15;;;10.20;99.90;;;;;;4987502;28;20046;-75
2022/05/25 00:24:15;;;;;;;8.10;7.05;;;10.20;99.90;;;;;;4969280;28;20056;-75
2022/05/25 00:26:40;;;;;;;8.93;7.18;;;10.20;99.90;;;;;;4988232;28;20113;-75
2022/05/25 00:29:06;;;;;;;7.80;7.00;;;10.20;99.90;;;;;;4988475;28;20079;-75
2022/05/25 00:31:32;;;;;;;8.43;7.18;;;10.20;99.90;;;;;;4987294;28;20060;-75
2022/05/25 00:33:58;;;;;;;8.52;6.93;;;10.20;99.90;;;;;;4972942;28;20104;-75
2022/05/25 00:36:24;;;;;;;8.23;7.20;;;10.10;99.90;;;;;;4952712;28;20041;-75
2022/05/25 00:38:50;;;;;;;8.20;6.88;;;10.10;99.90;;;;;;4972814;28;20501;-75
2022/05/25 00:41:15;;;;;;;7.35;6.65;;;10.10;99.90;;;;;;4971310;28;20030;-75
2022/05/25 00:43:42;;;;;;;11.23;7.07;;;10.10;99.90;;;;;;4987268;28;20072;-75
2022/05/25 00:46:16;;;;;;;8.80;7.32;;;10.10;99.90;;;;;;4967194;28;20116;-75
2022/05/25 00:48:50;;;;;;;10.07;7.18;;;10.10;99.90;;;;;;4985985;28;20050;-75
2022/05/25 00:51:22;;;;;;;7.65;6.95;;;10.00;99.90;;;;;;4988370;28;20117;-75
2022/05/25 00:53:54;;;;;;;9.95;6.80;;;10.00;99.90;;;;;;4985311;28;20045;-75
2022/05/25 00:56:21;;;;;;;9.17;7.00;;;10.00;99.90;;;;;;4970403;28;20046;-75
2022/05/25 00:58:59;;;;;;;8.68;6.60;;;10.00;99.90;;;;;;4972803;28;20316;-75
2022/05/25 01:01:26;;;;;;;10.50;6.97;;;9.90;99.90;;;;;;4972748;28;20034;-75
2022/05/25 01:03:52;;;;;;;8.07;6.90;;;9.90;99.90;;;;;;4970230;28;20551;-75
2022/05/25 01:06:24;;;;;;;8.00;7.20;;;9.90;99.90;;;;;;4956543;28;20034;-75
2022/05/25 01:09:14;;;;;;;10.32;7.07;;;9.80;99.90;;;;;;4971246;28;20078;-76
2022/05/25 01:11:49;;;;;;;9.68;7.38;;;9.80;99.90;;;;;;4984673;28;20179;-74
2022/05/25 01:14:26;;;;;;;8.55;6.97;;;9.80;99.90;;;;;;4985293;28;20045;-74
2022/05/25 01:17:02;;;;;;;9.23;7.70;;;9.80;99.90;;;;;;4986324;28;20046;-75
2022/05/25 01:19:43;;;;;;;10.70;7.93;;;9.70;99.90;;;;;;5001501;28;20049;-75
2022/05/25 01:22:11;;;;;;;9.65;7.97;;;9.70;99.90;;;;;;4982937;28;20038;-75
2022/05/25 01:25:05;;;;;;;10.05;8.65;;;9.70;99.90;;;;;;4984241;28;20043;-75
2022/05/25 01:27:44;;;;;;;9.95;7.50;;;9.60;99.90;;;;;;4967742;28;20517;-75
2022/05/25 01:30:38;;;;;;;10.25;8.30;;;9.60;99.90;;;;;;4999840;28;20125;-76
2022/05/25 01:33:29;;;;;;;9.77;7.65;;;9.60;99.90;;;;;;4967099;28;20139;-75
2022/05/25 01:36:20;;;;;;;9.38;7.28;;;9.50;99.90;;;;;;4967307;28;20196;-75
2022/05/25 01:39:17;;;;;;;8.93;8.02;;;9.50;99.90;;;;;;4982963;28;20466;-75
2022/05/25 01:42:01;;;;;;;10.43;7.88;;;9.50;99.90;;;;;;4966642;28;20344;-74
2022/05/25 01:44:35;;;;;;;10.55;8.13;;;9.50;99.90;;;;;;4973662;28;20042;-75
2022/05/25 01:47:12;;;;;;;10.60;8.32;;;9.50;99.90;;;;;;4975867;28;20046;-75
2022/05/25 01:49:51;;;;;;;10.80;8.93;;;9.40;99.90;;;;;;4989519;28;20081;-75
2022/05/25 01:52:24;;;;;;;9.80;8.75;;;9.40;99.90;;;;;;4976039;28;20041;-75
2022/05/25 01:54:56;;;;;;;10.25;8.65;;;9.40;99.90;;;;;;4989832;28;20576;-75
2022/05/25 01:57:25;;;;;;;11.88;9.63;;;9.40;99.90;;;;;;4974059;28;20534;-75
2022/05/25 01:59:51;;;;;;;11.40;9.52;;;9.30;99.90;;;;;;5003119;28;20903;-75
2022/05/25 02:05:08;;;;;;;11.70;9.27;;;9.30;99.90;;;;;;4986317;28;20050;-75
2022/05/25 02:07:49;;;;;;;12.82;9.68;;;9.30;99.90;;;;;;4989823;28;20041;-75
2022/05/25 02:10:57;;;;;;;10.88;9.43;;;9.30;99.90;;;;;;4974396;28;20046;-75
2022/05/25 02:13:28;;;;;;;11.52;9.55;;;9.30;99.90;;;;;;4991084;28;20112;-75
2022/05/25 02:15:58;;;;;;;12.40;10.10;;;9.30;99.90;;;;;;4988846;28;20204;-75
2022/05/25 02:18:40;;;;;;;13.15;9.90;;;9.30;99.90;;;;;;4972430;28;20040;-75
2022/05/25 02:21:45;;;;;;;12.70;10.20;;;9.30;99.90;;;;;;4972890;28;20062;-75
2022/05/25 02:24:28;;;;;;;14.80;10.80;;;9.30;99.90;;;;;;4971626;28;20045;-75
2022/05/25 02:27:06;;;;;;;11.18;9.65;;;9.20;99.90;;;;;;4987843;28;20129;-75
2022/05/25 02:29:40;;;;;;;14.70;10.07;;;9.20;99.90;;;;;;4971799;28;20108;-75
2022/05/25 02:32:22;;;;;;;14.63;10.75;;;9.20;99.90;;;;;;4989286;28;20057;-75
2022/05/25 02:34:51;;;;;;;13.02;10.57;;;9.20;99.90;;;;;;4985518;28;20487;-75
2022/05/25 02:37:19;;;;;;;12.43;10.52;;;9.20;99.90;;;;;;4985118;28;20038;-75
2022/05/25 02:39:49;;;;;;;13.70;10.65;;;9.10;99.90;;;;;;4972263;28;20343;-76
2022/05/25 02:42:16;;;;;;;16.50;10.77;;;9.10;99.90;;;;;;4957215;28;20045;-75
2022/05/25 02:44:43;;;;;;;16.63;11.30;;;9.10;99.90;;;;;;4987764;28;20117;-75
2022/05/25 02:47:09;;;;;;;14.55;11.43;;;9.10;99.90;;;;;;4970366;28;20503;-75
2022/05/25 02:49:36;;;;;;;16.77;11.35;;;9.10;99.90;;;;;;4987651;28;20455;-75
2022/05/25 02:52:02;;;;;;;15.10;11.82;;;9.00;99.90;;;;;;4958204;28;20165;-75
2022/05/25 02:54:28;;;;;;;15.73;12.15;;;9.00;99.90;;;;;;4973616;28;20030;-75
2022/05/25 02:56:54;;;;;;;16.10;12.98;;;9.00;99.90;;;;;;4955910;28;20394;-76
2022/05/25 02:59:19;;;;;;;15.00;12.23;;;9.10;99.90;;;;;;4985854;28;20479;-75
2022/05/25 03:01:45;;;;;;;17.10;11.88;;;9.10;99.90;;;;;;4958470;28;20629;-76
2022/05/25 03:04:11;;;;;;;19.02;13.45;;;9.00;99.90;;;;;;4973497;28;20042;-76
2022/05/25 03:06:37;;;;;;;17.33;12.43;;;9.10;99.90;;;;;;4973209;28;20041;-75
2022/05/25 03:09:03;;;;;;;15.70;12.13;;;9.10;99.90;;;;;;4972048;28;20128;-76
2022/05/25 03:11:28;;;;;;;17.80;12.65;;;9.00;99.90;;;;;;4989053;28;20061;-76
2022/05/25 03:13:54;;;;;;;17.23;12.38;;;9.00;99.90;;;;;;4973394;28;20038;-76
2022/05/25 03:16:22;;;;;;;21.85;14.38;;;9.00;99.90;;;;;;4960873;28;20044;-76
2022/05/25 03:18:50;;;;;;;16.67;12.75;;;9.00;99.90;;;;;;4972803;28;20777;-76
2022/05/25 03:21:17;;;;;;;25.38;15.73;;;9.00;99.90;;;;;;4989899;28;20038;-76
2022/05/25 03:23:43;;;;;;;17.67;12.77;;;9.10;99.90;;;;;;4987650;28;20600;-75
2022/05/25 03:26:09;;;;;;;18.15;14.40;;;8.80;99.90;;;;;;4990271;28;20168;-75
2022/05/25 03:28:35;;;;;;;18.50;13.70;;;9.00;99.90;;;;;;4957516;28;20068;-75
2022/05/25 03:31:01;;;;;;;17.67;13.88;;;9.00;99.90;;;;;;4988073;28;20089;-76
2022/05/25 03:33:28;;;;;;;25.33;14.25;;;9.00;99.90;;;;;;4988675;28;20057;-76
2022/05/25 03:35:53;;;;;;;22.27;14.63;;;9.00;99.90;;;;;;4955729;28;20066;-75
2022/05/25 03:38:19;;;;;;;18.67;14.70;;;9.00;99.90;;;;;;4972291;28;20140;-75
2022/05/25 03:40:46;;;;;;;19.63;14.00;;;9.00;99.90;;;;;;4990586;28;20483;-75
2022/05/25 03:43:15;;;;;;;18.75;14.70;;;8.90;99.90;;;;;;4973886;28;20084;-76
2022/05/25 03:45:41;;;;;;;17.98;13.82;;;9.00;99.90;;;;;;4972694;28;20544;-75
2022/05/25 03:48:07;;;;;;;19.98;14.02;;;9.00;99.90;;;;;;4972994;28;20038;-76
2022/05/25 03:50:38;;;;;;;20.15;14.20;;;9.00;99.90;;;;;;4972517;28;20268;-76
2022/05/25 03:53:05;;;;;;;19.33;14.13;;;9.00;99.90;;;;;;4972801;28;20121;-76
2022/05/25 03:55:31;;;;;;;18.83;15.13;;;9.00;99.90;;;;;;4972018;28;20518;-76
2022/05/25 03:57:57;;;;;;;19.75;14.35;;;9.00;99.90;;;;;;4972000;28;20115;-75
2022/05/25 04:00:22;;;;;;;27.27;15.38;;;9.00;99.90;;;;;;4986858;28;20040;-75
2022/05/25 04:02:48;;;;;;;21.80;15.40;;;9.00;99.90;;;;;;4957596;28;20030;-76
2022/05/25 04:05:14;;;;;;;22.50;15.30;;;9.00;99.90;;;;;;4987696;28;20047;-76
2022/05/25 04:07:45;;;;;;;20.95;15.68;;;9.00;99.90;;;;;;4986475;28;20054;-76
2022/05/25 04:10:15;;;;;;;22.50;15.65;;;9.10;99.90;;;;;;4987315;28;20515;-76
2022/05/25 04:12:42;;;;;;;21.38;16.73;;;9.00;99.90;;;;;;4983629;28;20153;-75
2022/05/25 04:15:12;;;;;;;20.58;15.82;;;9.10;99.90;;;;;;4980731;28;20046;-75
2022/05/25 04:17:37;;;;;;;23.38;16.08;;;9.20;99.90;;;;;;4972495;28;20045;-76
2022/05/25 04:20:04;;;;;;;23.95;17.60;;;9.20;99.90;;;;;;4957028;28;20037;-76
2022/05/25 04:22:32;;;;;;;24.55;15.77;;;9.20;99.90;;;;;;4971049;28;20069;-75
2022/05/25 04:25:02;;;;;;;22.67;16.67;;;9.20;99.90;;;;;;4987001;28;20195;-76
2022/05/25 04:27:28;;;;;;;21.83;16.50;;;9.20;99.90;;;;;;4967888;28;20415;-76
2022/05/25 04:29:54;;;;;;;23.02;16.20;;;9.30;99.90;;;;;;4956534;28;20042;-76
2022/05/25 04:32:20;;;;;;;24.00;16.17;;;9.30;99.90;;;;;;4987336;28;20124;-76
2022/05/25 04:34:45;;;;;;;23.20;16.90;;;9.30;99.90;;;;;;4988746;28;20043;-76
2022/05/25 04:39:55;;;;;;;22.38;17.15;;;9.40;99.90;;;;;;4988463;28;20546;-75
2022/05/25 04:42:21;;;;;;;23.00;16.95;;;9.50;99.90;;;;;;4970566;28;20034;-75
2022/05/25 04:44:47;;;;;;;25.55;17.17;;;9.50;99.90;;;;;;4985353;28;20038;-76
2022/05/25 04:47:13;;;;;;;24.80;16.42;;;9.50;99.90;;;;;;4955034;28;20027;-76
2022/05/25 04:49:43;;;;;;;22.55;17.13;;;9.60;99.90;;;;;;4955680;28;20510;-76
2022/05/25 04:52:10;;;;;;;23.48;16.90;;;9.60;99.90;;;;;;4969468;28;20046;-75
2022/05/25 04:54:35;;;;;;;23.65;16.10;;;9.70;99.90;;;;;;4970304;28;20121;-76
2022/05/25 04:57:19;;;;;;;21.08;16.05;;;9.70;99.90;;;;;;4972273;28;20637;-76
2022/05/25 04:59:52;;;;;;;23.55;16.27;;;9.70;99.90;;;;;;4959847;28;20095;-75
2022/05/25 05:02:19;;;;;;;22.90;15.40;;;9.80;99.90;;;;;;4971035;28;20041;-76
2022/05/25 05:04:45;;;;;;;23.63;16.48;;;9.80;99.90;;;;;;4970473;28;20062;-76
2022/05/25 05:07:13;;;;;;;26.30;16.63;;;9.90;99.90;;;;;;4984230;28;20207;-75
2022/05/25 05:09:40;;;;;;;22.17;15.57;;;9.90;99.90;;;;;;4985446;28;20133;-76
2022/05/25 05:12:06;;;;;;;21.27;15.57;;;10.00;99.90;;;;;;4987953;28;20097;-76
2022/05/25 05:14:32;;;;;;;19.92;15.57;;;10.00;99.90;;;;;;4969978;28;20558;-76
2022/05/25 05:17:00;;;;;;;23.20;15.43;;;10.10;99.90;;;;;;4957057;28;20136;-76
2022/05/25 05:19:27;;;;;;;21.17;15.02;;;10.10;99.90;;;;;;4986720;28;20048;-76
2022/05/25 05:22:03;;;;;;;20.25;15.75;;;10.20;99.90;;;;;;4986643;28;20038;-75
2022/05/25 05:24:31;;;;;;;24.05;14.07;;;10.20;99.90;;;;;;4986731;28;20033;-75
2022/05/25 05:26:57;;;;;;;20.98;14.90;;;10.30;99.90;;;;;;4987093;28;20539;-75
2022/05/25 05:29:24;;;;;;;20.23;15.07;;;10.30;99.90;;;;;;4956666;28;20041;-76
2022/05/25 05:31:50;;;;;;;22.27;14.77;;;10.40;99.90;;;;;;4971847;28;20061;-75
2022/05/25 05:34:16;;;;;;;20.52;14.18;;;10.40;99.90;;;;;;4988240;28;21646;-75
2022/05/25 05:36:50;;;;;;;20.27;13.95;;;10.50;99.90;;;;;;4985770;28;20038;-75
2022/05/25 05:39:18;;;;;;;20.95;14.15;;;10.60;99.90;;;;;;4984161;28;20438;-75
2022/05/25 05:41:55;;;;;;;22.27;14.90;;;10.60;99.90;;;;;;4969009;28;20274;-76
2022/05/25 05:44:25;;;;;;;22.60;14.70;;;10.70;99.90;;;;;;4986151;28;20038;-75
2022/05/25 05:46:56;;;;;;;22.17;15.07;;;10.80;99.90;;;;;;4986604;28;20120;-75
2022/05/25 05:49:22;;;;;;;20.80;14.07;;;10.80;99.90;;;;;;4970702;28;20045;-75
2022/05/25 05:51:47;;;;;;;17.27;12.82;;;10.90;99.90;;;;;;4972110;28;20060;-75
2022/05/25 05:54:15;;;;;;;24.30;14.85;;;11.00;99.90;;;;;;4967026;28;20487;-75
2022/05/25 05:56:41;;;;;;;19.52;13.82;;;11.10;99.90;;;;;;4969514;28;20042;-75
2022/05/25 05:59:07;;;;;;;16.83;12.95;;;11.10;99.90;;;;;;4987128;28;20577;-75
2022/05/25 06:01:32;;;;;;;27.35;14.48;;;11.20;99.90;;;;;;4962050;28;20096;-75
2022/05/25 06:03:58;;;;;;;23.83;13.18;;;11.30;99.90;;;;;;4959904;28;20092;-75
2022/05/25 06:06:24;;;;;;;20.98;13.32;;;11.30;99.90;;;;;;4972875;28;20132;-75
2022/05/25 06:08:50;;;;;;;22.13;13.98;;;11.40;99.90;;;;;;4986331;28;20050;-75
2022/05/25 06:11:18;;;;;;;27.05;14.27;;;11.50;99.90;;;;;;4983761;28;20057;-75
2022/05/25 06:13:44;;;;;;;19.05;13.35;;;11.50;99.90;;;;;;4959411;28;20060;-75
2022/05/25 06:21:38;;;;;;;21.58;15.52;;;11.80;99.90;;;;;;4967773;28;20038;-75
2022/05/25 06:24:04;;;;;;;18.05;13.00;;;11.90;99.90;;;;;;4985874;28;20041;-75
2022/05/25 06:26:31;;;;;;;18.73;13.27;;;12.00;99.90;;;;;;4981629;28;20085;-75
2022/05/25 06:29:01;;;;;;;22.98;13.98;;;12.10;99.90;;;;;;4974063;28;20042;-75
2022/05/25 06:31:31;;;;;;;22.73;12.70;;;12.10;99.90;;;;;;4994484;28;20057;-74
2022/05/25 06:33:56;;;;;;;18.50;13.68;;;12.20;99.90;;;;;;4978911;28;20041;-75
2022/05/25 06:36:25;;;;;;;21.13;13.60;;;12.30;99.90;;;;;;4986400;28;20045;-75
2022/05/25 06:38:51;;;;;;;20.02;13.55;;;12.40;99.90;;;;;;4977084;28;20044;-75
2022/05/25 06:41:18;;;;;;;20.88;13.63;;;12.40;99.90;;;;;;4975971;28;20077;-75
2022/05/25 06:43:44;;;;;;;17.77;12.90;;;12.50;99.90;;;;;;4994609;28;20578;-75
2022/05/25 06:46:12;;;;;;;24.20;15.35;;;12.60;99.90;;;;;;4976438;28;21315;-75
2022/05/25 06:48:39;;;;;;;18.13;12.40;;;12.70;99.90;;;;;;4985503;28;20042;-75
2022/05/25 06:51:09;;;;;;;20.70;13.25;;;12.90;99.90;;;;;;4960779;28;20053;-75
2022/05/25 06:53:35;;;;;;;16.85;11.40;;;13.00;99.90;;;;;;4995258;28;20499;-75
2022/05/25 06:56:01;;;;;;;21.55;13.20;;;13.10;99.90;;;;;;4975870;28;20128;-75
2022/05/25 06:58:26;;;;;;;20.52;13.05;;;13.10;99.90;;;;;;4994710;28;20121;-75
2022/05/25 07:00:52;;;;;;;14.30;11.38;;;13.30;99.90;;;;;;4983593;28;20252;-75
2022/05/25 07:03:18;;;;;;;17.50;12.43;;;13.40;99.90;;;;;;4973114;28;20126;-75
2022/05/25 07:05:43;;;;;;;22.95;13.50;;;13.50;99.90;;;;;;4955342;28;20034;-75
2022/05/25 07:08:09;;;;;;;16.98;11.52;;;13.60;99.90;;;;;;4972811;28;20117;-75
2022/05/25 07:10:35;;;;;;;17.52;11.07;;;13.80;99.90;;;;;;4978844;28;20190;-75
2022/05/25 07:13:00;;;;;;;15.35;9.68;;;13.90;99.90;;;;;;4962475;28;20053;-74
2022/05/25 07:15:26;;;;;;;16.38;9.82;;;14.00;99.90;;;;;;4980845;28;20038;-74
2022/05/25 07:17:52;;;;;;;14.00;9.35;;;14.20;99.90;;;;;;4985411;28;20039;-74
2022/05/25 07:20:18;;;;;;;16.67;9.13;;;14.20;99.90;;;;;;4958765;28;20041;-74
2022/05/25 07:22:43;;;;;;;17.83;9.55;;;14.20;99.90;;;;;;4962841;28;20592;-73
2022/05/25 07:25:09;;;;;;;14.68;9.52;;;14.30;99.90;;;;;;4978603;28;20498;-73
2022/05/25 07:27:35;;;;;;;12.23;8.07;;;14.30;99.90;;;;;;4975528;28;20097;-75
2022/05/25 07:30:01;;;;;;;11.02;8.95;;;14.40;99.90;;;;;;4986331;28;20513;-75
2022/05/25 07:32:27;;;;;;;14.05;9.52;;;14.60;99.90;;;;;;4994428;28;20057;-74
2022/05/25 07:34:58;;;;;;;14.80;9.40;;;14.70;99.90;;;;;;4975291;28;20034;-74
2022/05/25 07:37:32;;;;;;;12.13;8.13;;;14.80;99.90;;;;;;4991148;28;20454;-74
2022/05/25 07:40:06;;;;;;;13.63;7.80;;;15.00;99.90;;;;;;4994697;28;20062;-74
2022/05/25 07:42:32;;;;;;;12.00;7.65;;;15.10;99.90;;;;;;4980070;28;20042;-74
2022/05/25 07:45:00;;;;;;;9.45;6.63;;;15.20;99.90;;;;;;4969547;28;20034;-75
2022/05/25 07:47:28;;;;;;;8.45;5.10;;;15.30;99.90;;;;;;4988693;28;20406;-74
2022/05/25 07:49:54;;;;;;;10.40;5.30;;;15.30;99.90;;;;;;4975020;28;20447;-75
2022/05/25 07:52:22;;;;;;;9.60;5.35;;;15.20;99.90;;;;;;4987804;28;20096;-74
2022/05/25 07:54:48;;;;;;;7.47;5.57;;;15.20;99.90;;;;;;4976571;28;20446;-75
2022/05/25 07:57:14;;;;;;;7.97;6.40;;;15.20;99.90;;;;;;4968063;28;20037;-74
2022/05/25 07:59:41;;;;;;;6.72;5.60;;;15.30;99.90;;;;;;4977323;28;20041;-75
2022/05/25 08:07:40;;;;;;;13.13;4.55;;;15.90;99.90;;;;;;4990798;28;20098;-74
2022/05/25 08:10:16;;;;;;;5.03;4.10;;;15.90;99.90;;;;;;4971571;28;20073;-74
2022/05/25 08:12:44;;;;;;;6.38;4.40;;;15.80;99.90;;;;;;4983076;28;20044;-74
2022/05/25 08:15:12;;;;;;;6.28;4.40;;;15.90;99.90;;;;;;4993395;28;20042;-74
2022/05/25 08:17:38;;;;;;;5.20;4.22;;;16.10;99.90;;;;;;4974761;28;20434;-74
2022/05/25 08:20:05;;;;;;;7.63;4.80;;;16.00;99.90;;;;;;4971314;28;20525;-74
2022/05/25 08:22:31;;;;;;;7.22;5.00;;;16.00;99.90;;;;;;4974592;28;20044;-75
2022/05/25 08:24:57;;;;;;;6.05;4.40;;;16.00;99.90;;;;;;4993493;28;20120;-74
2022/05/25 08:27:24;;;;;;;6.60;5.10;;;16.00;99.90;;;;;;4989504;28;20438;-74
2022/05/25 08:29:49;;;;;;;6.10;4.47;;;16.20;99.90;;;;;;4974329;28;20046;-74
2022/05/25 08:32:15;;;;;;;6.95;4.95;;;16.30;99.90;;;;;;4989585;28;20081;-74
2022/05/25 08:34:43;;;;;;;9.05;4.65;;;16.60;99.90;;;;;;4985847;28;20121;-74
2022/05/25 08:37:10;;;;;;;7.18;4.55;;;16.80;99.90;;;;;;4987597;28;20045;-74
2022/05/25 08:39:36;;;;;;;6.32;4.53;;;16.80;99.90;;;;;;4993614;28;20033;-74
2022/05/25 08:42:06;;;;;;;11.32;4.80;;;16.70;99.90;;;;;;4993168;28;20462;-74
2022/05/25 08:44:33;;;;;;;8.60;4.65;;;16.60;99.90;;;;;;4977098;28;20045;-75
2022/05/25 08:47:01;;;;;;;8.68;4.50;;;16.60;99.90;;;;;;4993512;28;20034;-74
2022/05/25 08:49:31;;;;;;;5.85;4.10;;;16.60;99.90;;;;;;4976850;28;20053;-74
2022/05/25 08:51:59;;;;;;;9.00;4.43;;;16.60;99.90;;;;;;4984900;28;20077;-74
2022/05/25 08:54:27;;;;;;;5.00;4.03;;;16.60;99.90;;;;;;4986707;28;20042;-74
2022/05/25 08:57:06;;;;;;;5.82;4.15;;;16.50;99.90;;;;;;4973604;28;20097;-74
2022/05/25 08:59:51;;;;;;;5.10;4.00;;;16.60;99.90;;;;;;4973955;28;20042;-74
2022/05/25 09:02:27;;;;;;;6.68;3.97;;;16.70;99.90;;;;;;4993035;28;20041;-74
2022/05/25 09:05:09;;;;;;;7.63;4.40;;;16.90;99.90;;;;;;4989993;28;20529;-74
2022/05/25 09:07:53;;;;;;;6.30;4.13;;;17.00;99.90;;;;;;4982127;28;20100;-74
2022/05/25 09:10:19;;;;;;;5.05;3.88;;;17.10;99.90;;;;;;4979351;28;20068;-74
2022/05/25 09:12:56;;;;;;;6.45;3.75;;;17.10;99.90;;;;;;4976500;28;20078;-74
2022/05/25 09:15:36;;;;;;;4.13;3.72;;;17.10;99.90;;;;;;4995057;28;20048;-74
2022/05/25 09:18:13;;;;;;;4.25;3.83;;;17.10;99.90;;;;;;4966283;28;20038;-74
2022/05/25 09:20:45;;;;;;;4.70;4.00;;;17.10;99.90;;;;;;4986661;28;20034;-75
2022/05/25 09:23:15;;;;;;;4.95;3.53;;;17.00;99.90;;;;;;4984804;28;20606;-74
2022/05/25 09:25:43;;;;;;;5.07;3.80;;;17.10;99.90;;;;;;4979318;28;20052;-75
2022/05/25 09:28:20;;;;;;;4.80;3.60;;;17.10;99.90;;;;;;4982653;28;20053;-74
2022/05/25 09:30:53;;;;;;;5.05;3.53;;;17.10;99.90;;;;;;4986531;28;20061;-74
2022/05/25 09:33:48;;;;;;;5.28;4.38;;;17.20;99.90;;;;;;5000133;28;20481;-75
2022/05/25 09:36:21;;;;;;;4.72;3.60;;;17.30;99.90;;;;;;4979837;28;20561;-74
2022/05/25 09:39:03;;;;;;;4.68;3.72;;;17.30;99.90;;;;;;4979468;28;20512;-74
2022/05/25 09:41:31;;;;;;;7.20;4.47;;;17.20;99.90;;;;;;4981176;28;20045;-74
2022/05/25 09:44:02;;;;;;;6.63;4.85;;;17.20;99.90;;;;;;4973291;28;20408;-73
2022/05/25 09:46:51;;;;;;;6.00;4.18;;;17.10;99.90;;;;;;4985573;28;20053;-74
2022/05/25 09:49:35;;;;;;;6.70;5.18;;;17.10;99.90;;;;;;4975106;28;20034;-74
2022/05/25 09:52:06;;;;;;;6.00;4.20;;;17.00;99.90;;;;;;4981804;28;20150;-74
2022/05/25 09:54:50;;;;;;;6.25;3.90;;;17.10;99.90;;;;;;4972159;28;20040;-74
2022/05/25 09:57:21;;;;;;;7.10;4.20;;;17.10;99.90;;;;;;4966787;28;20042;-74
2022/05/25 10:00:02;;;;;;;7.03;4.40;;;17.10;99.90;;;;;;4975880;28;20038;-74
2022/05/25 10:02:48;;;;;;;7.47;3.83;;;17.10;99.90;;;;;;4982106;28;20038;-74
2022/05/25 10:05:14;;;;;;;6.35;4.50;;;17.20;99.90;;;;;;4990507;28;20030;-74
2022/05/25 10:07:54;;;;;;;6.47;4.07;;;17.40;99.90;;;;;;4993358;28;20046;-74
2022/05/25 10:10:33;;;;;;;8.15;4.78;;;17.60;99.90;;;;;;4979465;28;20038;-74
2022/05/25 10:13:03;;;;;;;7.13;4.35;;;17.60;99.90;;;;;;4979643;28;20049;-74
2022/05/25 10:15:35;;;;;;;5.55;4.15;;;17.80;99.90;;;;;;4991577;28;20041;-74
2022/05/25 10:18:01;;;;;;;9.38;3.90;;;18.00;99.90;;;;;;4987366;28;20038;-74
2022/05/25 10:20:43;;;;;;;8.13;4.00;;;18.10;99.90;;;;;;4976980;28;20049;-74
2022/05/25 10:23:21;;;;;;;6.07;3.60;;;18.10;99.50;;;;;;4984477;28;20092;-73
2022/05/25 10:25:51;;;;;;;4.30;3.53;;;18.30;99.30;;;;;;4982056;28;20118;-73
2022/05/25 10:28:20;;;;;;;5.05;3.47;;;18.20;99.00;;;;;;4979830;28;20627;-74
2022/05/25 10:37:00;;;;;;;5.18;3.20;;;17.70;99.40;;;;;;5011927;28;20054;-74
2022/05/25 10:39:28;;;;;;;5.03;3.00;;;17.80;99.90;;;;;;4976230;28;20041;-74
2022/05/25 10:42:01;;;;;;;4.80;3.35;;;17.80;99.90;;;;;;4976184;28;20064;-75
2022/05/25 10:44:34;;;;;;;4.88;3.10;;;17.70;99.00;;;;;;4975838;28;20042;-74
2022/05/25 10:47:00;;;;;;;5.75;3.45;;;17.90;99.50;;;;;;4987742;28;20081;-74
2022/05/25 10:49:43;;;;;;;5.38;4.25;;;18.20;99.90;;;;;;4975452;28;20553;-74
2022/05/25 10:52:41;;;;;;;5.65;4.40;;;18.20;98.60;;;;;;4987451;28;20037;-74
2022/05/25 10:55:08;;;;;;;6.00;4.00;;;18.00;98.60;;;;;;4968027;28;20525;-74
2022/05/25 10:57:58;;;;;;;5.97;3.15;;;17.70;99.40;;;;;;4979045;28;20052;-74
2022/05/25 11:00:37;;;;;;;7.90;3.38;;;17.40;98.50;;;;;;4974961;28;20037;-73
2022/05/25 11:03:25;;;;;;;6.20;2.65;;;17.30;98.40;;;;;;4986216;28;20045;-75
2022/05/25 11:06:28;;;;;;;2.95;2.33;;;17.00;98.20;;;;;;4985043;28;20057;-74
2022/05/25 11:09:15;;;;;;;5.22;4.18;;;16.80;98.40;;;;;;4963766;28;20072;-75
2022/05/25 11:12:05;;;;;;;3.50;2.67;;;16.60;99.20;;;;;;4968213;28;20380;-75
2022/05/25 11:14:43;;;;;;;4.13;2.65;;;16.30;99.90;;;;;;4987017;28;20046;-75
2022/05/25 11:17:31;;;;;;;7.07;3.30;;;16.20;99.90;;;;;;4984824;28;20038;-75
2022/05/25 11:20:31;;;;;;;4.85;3.63;;;16.40;99.90;;;;;;4972526;28;20033;-75
2022/05/25 11:22:59;;;;;;;4.75;3.60;;;16.70;99.90;;;;;;4969499;28;20131;-75
2022/05/25 11:25:44;;;;;;;7.45;3.85;;;17.10;99.90;;;;;;4968336;28;20040;-74
2022/05/25 11:28:31;;;;;;;12.85;3.58;;;17.60;99.90;;;;;;4999231;28;20053;-75
2022/05/25 11:31:22;;;;;;;5.20;3.55;;;17.90;99.90;;;;;;4967272;28;20054;-75
2022/05/25 11:34:15;;;;;;;4.65;3.65;;;18.40;99.90;;;;;;4966379;28;20044;-75
2022/05/25 11:36:56;;;;;;;5.38;4.30;;;18.90;99.90;;;;;;4979113;28;20095;-75
2022/05/25 11:39:44;;;;;;;5.05;4.45;;;19.20;99.90;;;;;;4969735;28;20065;-75
2022/05/25 11:42:10;;;;;;;6.10;4.40;;;19.70;99.20;;;;;;4986084;28;20142;-75
2022/05/25 11:44:51;;;;;;;8.00;4.90;;;19.50;99.50;;;;;;4968804;28;20140;-75
2022/05/25 11:47:28;;;;;;;5.60;4.07;;;19.20;99.20;;;;;;4966073;28;20038;-76
2022/05/25 11:50:09;;;;;;;5.68;3.85;;;19.00;98.40;;;;;;4982386;28;20108;-75
2022/05/25 11:52:53;;;;;;;4.70;4.03;;;18.90;98.90;;;;;;4981515;28;20457;-75
2022/05/25 11:55:27;;;;;;;5.88;4.47;;;18.80;97.30;;;;;;4982755;28;20093;-75
2022/05/25 11:58:07;;;;;;;6.97;4.63;;;18.80;97.50;;;;;;4980636;28;20120;-75
2022/05/25 12:00:49;;;;;;;8.07;4.72;;;18.80;97.90;;;;;;4982833;28;20046;-75
2022/05/25 12:03:26;;;;;;;5.63;4.70;;;18.80;96.80;;;;;;4965009;28;20048;-75
2022/05/25 12:06:04;;;;;;;4.82;4.40;;;18.70;97.20;;;;;;4962044;28;20072;-75
2022/05/25 12:08:51;;;;;;;7.93;4.80;;;18.70;96.90;;;;;;4979248;28;20151;-75
2022/05/25 12:11:38;;;;;;;4.80;3.88;;;18.70;96.60;;;;;;4979259;28;20033;-75
2022/05/25 12:14:28;;;;;;;9.05;4.95;;;18.60;95.80;;;;;;4974875;28;20049;-72
2022/05/25 12:17:02;;;;;;;6.25;5.20;;;18.30;94.10;;;;;;4963609;28;20520;-75
2022/05/25 12:19:32;;;;;;;6.07;5.30;;;17.90;94.30;;;;;;4979272;28;20247;-76
2022/05/25 12:22:15;;;;;;;7.07;5.05;;;17.80;95.00;;;;;;4964968;28;20042;-74
2022/05/25 12:24:45;;;;;;;7.55;5.18;;;17.60;94.10;;;;;;4982782;28;20400;-74
2022/05/25 12:27:19;;;;;;;6.65;5.15;;;17.30;95.10;;;;;;4965629;28;20034;-75
2022/05/25 12:29:52;;;;;;;6.53;5.25;;;17.30;95.90;;;;;;4964756;28;20045;-75
2022/05/25 12:32:19;;;;;;;9.23;6.30;;;17.10;96.50;;;;;;4964385;28;20069;-76
2022/05/25 12:34:53;;;;;;;8.35;5.20;;;17.10;96.40;;;;;;4978871;28;20064;-75
2022/05/25 12:37:25;;;;;;;7.72;4.20;;;17.10;96.30;;;;;;4978608;28;20499;-75
2022/05/25 12:39:52;;;;;;;8.77;5.28;;;17.10;95.60;;;;;;4962728;28;20134;-75
2022/05/25 12:42:24;;;;;;;7.15;5.05;;;17.10;95.60;;;;;;4962127;28;20041;-74
2022/05/25 12:50:47;;;;;;;10.07;5.95;;;17.20;97.30;;;;;;4978964;28;20140;-76
2022/05/25 12:53:34;;;;;;;9.07;6.38;;;17.30;97.10;;;;;;4977345;28;20045;-75
2022/05/25 12:56:00;;;;;;;8.38;6.38;;;17.50;96.00;;;;;;4976620;28;20057;-75
2022/05/25 12:58:36;;;;;;;9.45;6.30;;;17.70;96.40;;;;;;4977843;28;20042;-75
2022/05/25 13:01:13;;;;;;;9.65;6.05;;;17.90;96.70;;;;;;4982616;28;20042;-76
2022/05/25 13:03:45;;;;;;;7.82;5.25;;;17.90;96.20;;;;;;4964964;28;20041;-74
2022/05/25 13:06:11;;;;;;;8.52;5.47;;;18.10;96.10;;;;;;4979393;28;20034;-76
2022/05/25 13:08:49;;;;;;;7.63;5.32;;;18.30;96.50;;;;;;4960805;28;20038;-76
2022/05/25 13:11:37;;;;;;;6.32;5.28;;;18.40;96.10;;;;;;4985229;28;20070;-75
2022/05/25 13:14:08;;;;;;;8.88;5.20;;;18.50;96.40;;;;;;4970414;28;20491;-75
2022/05/25 13:16:40;;;;;;;5.78;4.95;;;18.60;96.50;;;;;;4958779;28;20042;-75
2022/05/25 13:19:37;;;;;;;8.43;4.25;;;18.50;96.50;;;;;;4984135;28;20108;-75
2022/05/25 13:22:03;;;;;;;6.75;3.95;;;18.50;95.70;;;;;;4978508;28;20068;-76
2022/05/25 13:24:46;;;;;;;5.47;3.58;;;18.50;95.80;;;;;;4968019;28;21136;-76
2022/05/25 13:27:21;;;;;;;5.47;3.50;;;18.60;95.20;;;;;;4963705;28;20180;-76
2022/05/25 13:30:18;;;;;;;6.10;3.40;;;18.70;95.20;;;;;;4965153;28;20034;-76
2022/05/25 13:32:52;;;;;;;5.03;3.03;;;18.60;94.80;;;;;;4963375;28;20061;-76
2022/05/25 13:35:21;;;;;;;5.38;3.25;;;18.50;95.80;;;;;;4972105;28;20048;-76
2022/05/25 13:37:57;;;;;;;6.15;3.30;;;18.50;95.60;;;;;;4972250;28;20034;-75